sensor_id;sensor_type;location;lat;lon;timestamp;temperature;humidity
70593;DHT22;58294;42.988;20.338;2023-07-09T00:00:49;384.20;2329.60
70593;DHT22;58294;42.988;20.338;2023-07-09T00:03:15;384.20;2329.60
70593;DHT22;58294;42.988;20.338;2023-07-09T00:08:25;384.40;2329.60
70593;DHT22;58294;42.988;20.338;2023-07-09T00:10:54;384.20;2329.60
70593;DHT22;58294;42.988;20.338;2023-07-09T00:13:20;384.20;2329.60
70593;DHT22;58294;42.988;20.338;2023-07-09T00:15:46;384.10;2329.60
70593;DHT22;58294;42.988;20.338;2023-07-09T00:18:12;384.10;2329.60
70593;DHT22;58294;42.988;20.338;2023-07-09T00:20:37;384.10;2329.60
70593;DHT22;58294;42.988;20.338;2023-07-09T00:30:23;384.10;2329.60
70593;DHT22;58294;42.988;20.338;2023-07-09T00:32:50;384.00;2329.60
70593;DHT22;58294;42.988;20.338;2023-07-09T00:35:18;359.30;2329.60
70593;DHT22;58294;42.988;20.338;2023-07-09T00:37:45;359.20;2329.60
70593;DHT22;58294;42.988;20.338;2023-07-09T00:40:17;359.20;2329.60
70593;DHT22;58294;42.988;20.338;2023-07-09T00:42:51;359.20;2329.60
70593;DHT22;58294;42.988;20.338;2023-07-09T00:45:23;359.20;2329.60
70593;DHT22;58294;42.988;20.338;2023-07-09T00:52:53;359.00;2329.60
70593;DHT22;58294;42.988;20.338;2023-07-09T00:55:25;359.00;2329.60
70593;DHT22;58294;42.988;20.338;2023-07-09T00:57:56;359.10;2329.60
70593;DHT22;58294;42.988;20.338;2023-07-09T01:00:30;359.10;2329.60
70593;DHT22;58294;42.988;20.338;2023-07-09T01:03:02;358.90;2329.60
70593;DHT22;58294;42.988;20.338;2023-07-09T01:05:30;358.90;2329.60
70593;DHT22;58294;42.988;20.338;2023-07-09T01:07:56;358.90;2329.60
70593;DHT22;58294;42.988;20.338;2023-07-09T01:10:23;358.80;2329.60
70593;DHT22;58294;42.988;20.338;2023-07-09T01:12:50;358.80;2329.60
70593;DHT22;58294;42.988;20.338;2023-07-09T01:15:16;358.80;2329.60
70593;DHT22;58294;42.988;20.338;2023-07-09T01:17:42;358.80;2329.60
70593;DHT22;58294;42.988;20.338;2023-07-09T01:20:18;358.80;2329.60
70593;DHT22;58294;42.988;20.338;2023-07-09T01:22:48;358.80;2329.60
70593;DHT22;58294;42.988;20.338;2023-07-09T01:25:14;358.80;2329.60
70593;DHT22;58294;42.988;20.338;2023-07-09T01:27:44;358.80;2329.60
70593;DHT22;58294;42.988;20.338;2023-07-09T01:30:39;358.70;2329.60
70593;DHT22;58294;42.988;20.338;2023-07-09T01:33:05;358.70;2329.60
70593;DHT22;58294;42.988;20.338;2023-07-09T01:35:34;358.60;2329.60
70593;DHT22;58294;42.988;20.338;2023-07-09T01:38:00;358.60;2329.60
70593;DHT22;58294;42.988;20.338;2023-07-09T01:40:28;358.60;2329.60
70593;DHT22;58294;42.988;20.338;2023-07-09T01:42:56;358.50;2329.60
70593;DHT22;58294;42.988;20.338;2023-07-09T01:45:23;358.50;2329.60
70593;DHT22;58294;42.988;20.338;2023-07-09T01:47:51;358.40;2329.60
70593;DHT22;58294;42.988;20.338;2023-07-09T01:50:19;358.40;2329.60
70593;DHT22;58294;42.988;20.338;2023-07-09T01:52:47;358.40;2329.60
70593;DHT22;58294;42.988;20.338;2023-07-09T01:55:15;358.40;2329.60
70593;DHT22;58294;42.988;20.338;2023-07-09T01:57:42;358.40;2329.60
70593;DHT22;58294;42.988;20.338;2023-07-09T02:00:13;358.40;2329.60
70593;DHT22;58294;42.988;20.338;2023-07-09T02:02:40;358.40;2329.60
70593;DHT22;58294;42.988;20.338;2023-07-09T02:05:09;358.40;2329.60
70593;DHT22;58294;42.988;20.338;2023-07-09T02:07:35;358.40;2329.60
70593;DHT22;58294;42.988;20.338;2023-07-09T02:10:01;333.70;2329.60
70593;DHT22;58294;42.988;20.338;2023-07-09T02:12:27;333.70;2329.60
70593;DHT22;58294;42.988;20.338;2023-07-09T02:14:53;333.70;2329.60
70593;DHT22;58294;42.988;20.338;2023-07-09T02:17:19;333.70;2329.60
70593;DHT22;58294;42.988;20.338;2023-07-09T02:19:44;333.60;2329.60
70593;DHT22;58294;42.988;20.338;2023-07-09T02:22:11;333.70;2329.60
70593;DHT22;58294;42.988;20.338;2023-07-09T02:24:37;333.60;2329.60
70593;DHT22;58294;42.988;20.338;2023-07-09T02:27:05;333.60;2329.60
70593;DHT22;58294;42.988;20.338;2023-07-09T02:29:31;333.60;2329.60
70593;DHT22;58294;42.988;20.338;2023-07-09T02:31:59;333.60;2329.60
70593;DHT22;58294;42.988;20.338;2023-07-09T02:34:27;333.60;2329.60
70593;DHT22;58294;42.988;20.338;2023-07-09T02:36:54;333.60;2329.60
70593;DHT22;58294;42.988;20.338;2023-07-09T02:39:21;333.60;2329.60
70593;DHT22;58294;42.988;20.338;2023-07-09T02:41:47;333.60;2329.60
70593;DHT22;58294;42.988;20.338;2023-07-09T02:44:13;333.50;2329.60
70593;DHT22;58294;42.988;20.338;2023-07-09T02:46:39;333.50;2329.60
70593;DHT22;58294;42.988;20.338;2023-07-09T02:49:06;333.50;2329.60
70593;DHT22;58294;42.988;20.338;2023-07-09T02:51:32;333.50;2329.60
70593;DHT22;58294;42.988;20.338;2023-07-09T02:54:00;333.60;2329.60
70593;DHT22;58294;42.988;20.338;2023-07-09T02:56:26;333.60;2329.60
70593;DHT22;58294;42.988;20.338;2023-07-09T02:58:52;333.60;2329.60
70593;DHT22;58294;42.988;20.338;2023-07-09T03:01:18;333.60;2329.60
70593;DHT22;58294;42.988;20.338;2023-07-09T03:03:56;333.70;2329.60
70593;DHT22;58294;42.988;20.338;2023-07-09T03:06:26;333.70;2329.60
70593;DHT22;58294;42.988;20.338;2023-07-09T03:08:52;333.70;2329.60
70593;DHT22;58294;42.988;20.338;2023-07-09T03:11:21;358.40;2329.60
70593;DHT22;58294;42.988;20.338;2023-07-09T03:13:47;358.40;2329.60
70593;DHT22;58294;42.988;20.338;2023-07-09T03:16:15;358.40;2329.60
70593;DHT22;58294;42.988;20.338;2023-07-09T03:18:41;358.40;2329.60
70593;DHT22;58294;42.988;20.338;2023-07-09T03:21:07;358.40;2329.60
70593;DHT22;58294;42.988;20.338;2023-07-09T03:23:33;358.40;2329.60
70593;DHT22;58294;42.988;20.338;2023-07-09T03:25:59;358.40;2329.60
70593;DHT22;58294;42.988;20.338;2023-07-09T03:28:25;358.40;2329.60
70593;DHT22;58294;42.988;20.338;2023-07-09T03:30:54;358.40;2329.60
70593;DHT22;58294;42.988;20.338;2023-07-09T03:33:20;358.40;2329.60
70593;DHT22;58294;42.988;20.338;2023-07-09T03:35:46;358.50;2329.60
70593;DHT22;58294;42.988;20.338;2023-07-09T03:38:13;358.40;2329.60
70593;DHT22;58294;42.988;20.338;2023-07-09T03:40:39;358.50;2329.60
70593;DHT22;58294;42.988;20.338;2023-07-09T03:43:05;358.50;2329.60
70593;DHT22;58294;42.988;20.338;2023-07-09T03:45:32;358.60;2329.60
70593;DHT22;58294;42.988;20.338;2023-07-09T03:47:58;358.60;2329.60
70593;DHT22;58294;42.988;20.338;2023-07-09T03:50:24;358.60;2329.60
70593;DHT22;58294;42.988;20.338;2023-07-09T03:52:50;358.60;2329.60
70593;DHT22;58294;42.988;20.338;2023-07-09T03:55:16;358.70;2329.60
70593;DHT22;58294;42.988;20.338;2023-07-09T03:57:42;358.70;2329.60
70593;DHT22;58294;42.988;20.338;2023-07-09T04:00:08;358.80;2329.60
70593;DHT22;58294;42.988;20.338;2023-07-09T04:02:38;358.80;2329.60
70593;DHT22;58294;42.988;20.338;2023-07-09T04:05:05;358.90;2329.60
70593;DHT22;58294;42.988;20.338;2023-07-09T04:07:31;358.90;2329.60
70593;DHT22;58294;42.988;20.338;2023-07-09T04:09:57;359.00;2329.60
70593;DHT22;58294;42.988;20.338;2023-07-09T04:12:23;359.00;2329.60
70593;DHT22;58294;42.988;20.338;2023-07-09T04:14:49;359.00;2329.60
70593;DHT22;58294;42.988;20.338;2023-07-09T04:17:14;359.10;2329.60
70593;DHT22;58294;42.988;20.338;2023-07-09T04:19:40;359.10;2329.60
70593;DHT22;58294;42.988;20.338;2023-07-09T04:22:06;359.10;2329.60
70593;DHT22;58294;42.988;20.338;2023-07-09T04:24:32;359.20;2329.60
70593;DHT22;58294;42.988;20.338;2023-07-09T04:26:58;359.30;2329.60
70593;DHT22;58294;42.988;20.338;2023-07-09T04:29:29;384.00;2329.60
70593;DHT22;58294;42.988;20.338;2023-07-09T04:31:55;384.00;2329.60
70593;DHT22;58294;42.988;20.338;2023-07-09T04:34:21;384.10;2329.60
70593;DHT22;58294;42.988;20.338;2023-07-09T04:36:49;384.20;2329.60
70593;DHT22;58294;42.988;20.338;2023-07-09T04:39:16;384.20;2329.60
70593;DHT22;58294;42.988;20.338;2023-07-09T04:41:42;384.30;2329.60
70593;DHT22;58294;42.988;20.338;2023-07-09T04:44:08;384.40;2329.60
70593;DHT22;58294;42.988;20.338;2023-07-09T04:46:34;384.40;2329.60
70593;DHT22;58294;42.988;20.338;2023-07-09T04:49:00;384.50;2329.60
70593;DHT22;58294;42.988;20.338;2023-07-09T04:51:26;384.50;2329.60
70593;DHT22;58294;42.988;20.338;2023-07-09T04:53:52;384.60;2329.60
70593;DHT22;58294;42.988;20.338;2023-07-09T04:56:18;384.60;2329.60
70593;DHT22;58294;42.988;20.338;2023-07-09T04:58:44;384.50;2329.60
70593;DHT22;58294;42.988;20.338;2023-07-09T05:01:10;384.50;2329.60
70593;DHT22;58294;42.988;20.338;2023-07-09T05:03:36;384.50;2329.60
70593;DHT22;58294;42.988;20.338;2023-07-09T05:06:02;384.50;2329.60
70593;DHT22;58294;42.988;20.338;2023-07-09T05:08:28;384.50;2329.60
70593;DHT22;58294;42.988;20.338;2023-07-09T05:10:56;384.60;2329.60
70593;DHT22;58294;42.988;20.338;2023-07-09T05:13:24;384.70;2329.60
70593;DHT22;58294;42.988;20.338;2023-07-09T05:15:50;384.60;2329.60
70593;DHT22;58294;42.988;20.338;2023-07-09T05:18:17;384.70;2329.60
70593;DHT22;58294;42.988;20.338;2023-07-09T05:20:45;384.70;2329.60
70593;DHT22;58294;42.988;20.338;2023-07-09T05:23:11;384.70;2329.60
70593;DHT22;58294;42.988;20.338;2023-07-09T05:25:37;384.70;2329.60
70593;DHT22;58294;42.988;20.338;2023-07-09T05:28:04;384.70;2329.60
70593;DHT22;58294;42.988;20.338;2023-07-09T05:30:30;384.70;2329.60
70593;DHT22;58294;42.988;20.338;2023-07-09T05:32:56;384.70;2329.60
70593;DHT22;58294;42.988;20.338;2023-07-09T05:35:26;384.70;2329.60
70593;DHT22;58294;42.988;20.338;2023-07-09T05:37:53;384.70;2329.60
70593;DHT22;58294;42.988;20.338;2023-07-09T05:40:19;384.70;2329.60
70593;DHT22;58294;42.988;20.338;2023-07-09T05:42:44;384.70;2329.60
70593;DHT22;58294;42.988;20.338;2023-07-09T05:45:10;384.70;2329.60
70593;DHT22;58294;42.988;20.338;2023-07-09T05:47:36;384.70;2329.60
70593;DHT22;58294;42.988;20.338;2023-07-09T05:50:03;384.60;2329.60
70593;DHT22;58294;42.988;20.338;2023-07-09T05:52:29;384.70;2329.60
70593;DHT22;58294;42.988;20.338;2023-07-09T05:54:55;384.70;2329.60
70593;DHT22;58294;42.988;20.338;2023-07-09T05:57:21;384.70;2329.60
70593;DHT22;58294;42.988;20.338;2023-07-09T05:59:47;384.80;2329.60
70593;DHT22;58294;42.988;20.338;2023-07-09T06:02:16;384.80;2329.60
70593;DHT22;58294;42.988;20.338;2023-07-09T06:04:42;409.60;2355.20
70593;DHT22;58294;42.988;20.338;2023-07-09T06:07:09;409.60;2355.20
70593;DHT22;58294;42.988;20.338;2023-07-09T06:09:36;409.60;2355.20
70593;DHT22;58294;42.988;20.338;2023-07-09T06:25:57;409.70;2355.20
70593;DHT22;58294;42.988;20.338;2023-07-09T06:28:25;435.20;2355.20
70593;DHT22;58294;42.988;20.338;2023-07-09T06:30:52;435.20;2355.20
70593;DHT22;58294;42.988;20.338;2023-07-09T06:33:19;435.20;2355.20
70593;DHT22;58294;42.988;20.338;2023-07-09T06:38:18;435.40;2355.20
70593;DHT22;58294;42.988;20.338;2023-07-09T06:40:44;435.60;2355.20
70593;DHT22;58294;42.988;20.338;2023-07-09T06:43:10;435.60;2355.20
70593;DHT22;58294;42.988;20.338;2023-07-09T06:45:36;435.70;2355.20
70593;DHT22;58294;42.988;20.338;2023-07-09T06:48:03;435.80;2355.20
70593;DHT22;58294;42.988;20.338;2023-07-09T06:50:32;435.90;2355.20
70593;DHT22;58294;42.988;20.338;2023-07-09T06:52:58;436.00;2355.20
70593;DHT22;58294;42.988;20.338;2023-07-09T06:55:23;436.10;2355.20
70593;DHT22;58294;42.988;20.338;2023-07-09T06:57:51;460.80;2380.80
70593;DHT22;58294;42.988;20.338;2023-07-09T07:00:16;460.90;2380.80
70593;DHT22;58294;42.988;20.338;2023-07-09T07:05:08;461.20;2380.80
70593;DHT22;58294;42.988;20.338;2023-07-09T07:07:34;461.30;2380.80
70593;DHT22;58294;42.988;20.338;2023-07-09T07:10:00;461.50;2380.80
70593;DHT22;58294;42.988;20.338;2023-07-09T07:12:28;461.60;2380.80
70593;DHT22;58294;42.988;20.338;2023-07-09T07:14:55;486.40;2380.80
70593;DHT22;58294;42.988;20.338;2023-07-09T07:17:21;486.50;2380.80
70593;DHT22;58294;42.988;20.338;2023-07-09T07:19:47;486.70;2380.80
70593;DHT22;58294;42.988;20.338;2023-07-09T07:24:40;486.90;2380.80
70593;DHT22;58294;42.988;20.338;2023-07-09T07:27:08;487.10;2380.80
70593;DHT22;58294;42.988;20.338;2023-07-09T07:29:34;487.20;2380.80
70593;DHT22;58294;42.988;20.338;2023-07-09T07:31:59;487.20;2380.80
70593;DHT22;58294;42.988;20.338;2023-07-09T07:34:26;512.00;2380.80
70593;DHT22;58294;42.988;20.338;2023-07-09T07:36:52;512.00;2380.80
70593;DHT22;58294;42.988;20.338;2023-07-09T07:39:17;512.00;2380.80
70593;DHT22;58294;42.988;20.338;2023-07-09T07:41:43;512.10;2380.80
70593;DHT22;58294;42.988;20.338;2023-07-09T07:44:09;512.30;2380.80
70593;DHT22;58294;42.988;20.338;2023-07-09T07:46:35;512.60;2380.80
70593;DHT22;58294;42.988;20.338;2023-07-09T07:49:00;537.60;2406.40
70593;DHT22;58294;42.988;20.338;2023-07-09T07:51:26;537.70;2406.40
70593;DHT22;58294;42.988;20.338;2023-07-09T08:17:23;538.20;2406.40
70593;DHT22;58294;42.988;20.338;2023-07-09T08:19:53;563.60;2432.00
70593;DHT22;58294;42.988;20.338;2023-07-09T08:22:20;563.80;2432.00
70593;DHT22;58294;42.988;20.338;2023-07-09T08:24:50;564.10;2432.00
70593;DHT22;58294;42.988;20.338;2023-07-09T08:32:12;589.20;2432.00
70593;DHT22;58294;42.988;20.338;2023-07-09T08:34:39;589.20;2432.00
70593;DHT22;58294;42.988;20.338;2023-07-09T08:37:06;589.50;2432.00
70593;DHT22;58294;42.988;20.338;2023-07-09T08:39:32;589.50;2432.00
70593;DHT22;58294;42.988;20.338;2023-07-09T08:42:16;589.60;2432.00
70593;DHT22;58294;42.988;20.338;2023-07-09T08:45:19;614.50;2432.00
70593;DHT22;58294;42.988;20.338;2023-07-09T08:48:45;614.50;2432.00
70593;DHT22;58294;42.988;20.338;2023-07-09T08:53:25;615.10;2432.00
70593;DHT22;58294;42.988;20.338;2023-07-09T08:55:54;615.00;2432.00
70593;DHT22;58294;42.988;20.338;2023-07-09T08:58:27;615.10;2432.00
70593;DHT22;58294;42.988;20.338;2023-07-09T09:01:06;615.10;2432.00
70593;DHT22;58294;42.988;20.338;2023-07-09T09:03:50;615.10;2432.00
70593;DHT22;58294;42.988;20.338;2023-07-09T09:06:26;615.20;2432.00
70593;DHT22;58294;42.988;20.338;2023-07-09T09:11:53;615.10;2432.00
70593;DHT22;58294;42.988;20.338;2023-07-09T09:16:52;615.20;2227.20
70593;DHT22;58294;42.988;20.338;2023-07-09T09:19:32;615.30;1612.80
70593;DHT22;58294;42.988;20.338;2023-07-09T09:22:09;615.30;1638.40
70593;DHT22;58294;42.988;20.338;2023-07-09T09:24:50;640.10;1894.40
70593;DHT22;58294;42.988;20.338;2023-07-09T09:27:18;640.30;2432.00
70593;DHT22;58294;42.988;20.338;2023-07-09T09:29:44;640.20;1612.80
70593;DHT22;58294;42.988;20.338;2023-07-09T09:32:30;640.20;1996.80
70593;DHT22;58294;42.988;20.338;2023-07-09T09:34:56;640.40;2432.00
70593;DHT22;58294;42.988;20.338;2023-07-09T09:37:32;640.20;2073.60
70593;DHT22;58294;42.988;20.338;2023-07-09T09:40:01;640.30;2432.00
70593;DHT22;58294;42.988;20.338;2023-07-09T09:42:28;640.30;2432.00
70593;DHT22;58294;42.988;20.338;2023-07-09T09:44:55;640.60;1843.20
70593;DHT22;58294;42.988;20.338;2023-07-09T09:47:21;640.60;1587.20
70593;DHT22;58294;42.988;20.338;2023-07-09T09:49:48;640.60;1971.20
70593;DHT22;58294;42.988;20.338;2023-07-09T09:52:16;640.50;1638.40
70593;DHT22;58294;42.988;20.338;2023-07-09T09:57:59;640.40;1484.80
70593;DHT22;58294;42.988;20.338;2023-07-09T10:00:27;640.30;1510.40
70593;DHT22;58294;42.988;20.338;2023-07-09T10:02:58;640.20;1971.20
70593;DHT22;58294;42.988;20.338;2023-07-09T10:05:34;640.40;1792.00
70593;DHT22;58294;42.988;20.338;2023-07-09T10:08:39;640.50;2432.00
70593;DHT22;58294;42.988;20.338;2023-07-09T10:11:30;640.50;1612.80
70593;DHT22;58294;42.988;20.338;2023-07-09T10:14:03;640.60;2227.20
70593;DHT22;58294;42.988;20.338;2023-07-09T10:16:38;640.70;2073.60
70593;DHT22;58294;42.988;20.338;2023-07-09T10:19:27;640.70;1510.40
70593;DHT22;58294;42.988;20.338;2023-07-09T10:22:28;640.60;1484.80
70593;DHT22;58294;42.988;20.338;2023-07-09T10:25:06;640.60;1612.80
70593;DHT22;58294;42.988;20.338;2023-07-09T10:33:09;665.90;2124.80
70593;DHT22;58294;42.988;20.338;2023-07-09T10:35:41;666.20;1792.00
70593;DHT22;58294;42.988;20.338;2023-07-09T10:38:29;666.00;1408.00
70593;DHT22;58294;42.988;20.338;2023-07-09T11:01:04;921.90;1792.00
70593;DHT22;58294;42.988;20.338;2023-07-09T11:03:43;922.50;1817.60
70593;DHT22;58294;42.988;20.338;2023-07-09T11:06:17;947.60;1203.20
70593;DHT22;58294;42.988;20.338;2023-07-09T11:08:45;947.50;896.00
70593;DHT22;58294;42.988;20.338;2023-07-09T11:11:32;948.00;972.80
70593;DHT22;58294;42.988;20.338;2023-07-09T11:14:08;947.90;768.00
70593;DHT22;58294;42.988;20.338;2023-07-09T11:19:06;973.40;1177.60
70593;DHT22;58294;42.988;20.338;2023-07-09T11:39:30;1024.40;1024.00
70593;DHT22;58294;42.988;20.338;2023-07-09T11:41:58;1049.90;1126.40
70593;DHT22;58294;42.988;20.338;2023-07-09T11:44:30;1049.80;844.80
70593;DHT22;58294;42.988;20.338;2023-07-09T11:47:27;1049.90;972.80
70593;DHT22;58294;42.988;20.338;2023-07-09T11:52:28;1024.80;972.80
70593;DHT22;58294;42.988;20.338;2023-07-09T11:54:56;1050.10;998.40
70593;DHT22;58294;42.988;20.338;2023-07-09T12:04:48;998.70;1126.40
70593;DHT22;58294;42.988;20.338;2023-07-09T12:07:15;999.30;972.80
70593;DHT22;58294;42.988;20.338;2023-07-09T12:09:47;999.20;896.00
70593;DHT22;58294;42.988;20.338;2023-07-09T12:12:20;998.90;844.80
70593;DHT22;58294;42.988;20.338;2023-07-09T12:14:46;998.70;844.80
70593;DHT22;58294;42.988;20.338;2023-07-09T12:19:39;973.40;972.80
70593;DHT22;58294;42.988;20.338;2023-07-09T12:22:10;973.70;998.40
70593;DHT22;58294;42.988;20.338;2023-07-09T12:34:39;1050.30;947.20
70593;DHT22;58294;42.988;20.338;2023-07-09T12:37:05;1075.20;870.40
70593;DHT22;58294;42.988;20.338;2023-07-09T12:39:33;1050.20;793.60
70593;DHT22;58294;42.988;20.338;2023-07-09T12:42:02;1050.00;870.40
70593;DHT22;58294;42.988;20.338;2023-07-09T12:44:31;1049.90;819.20
70593;DHT22;58294;42.988;20.338;2023-07-09T12:46:58;1049.80;768.00
70593;DHT22;58294;42.988;20.338;2023-07-09T12:49:29;1050.40;870.40
70593;DHT22;58294;42.988;20.338;2023-07-09T12:51:56;1049.90;844.80
70593;DHT22;58294;42.988;20.338;2023-07-09T12:54:23;1050.10;844.80
70593;DHT22;58294;42.988;20.338;2023-07-09T12:56:56;1024.80;870.40
70593;DHT22;58294;42.988;20.338;2023-07-09T12:59:27;1024.10;921.60
70593;DHT22;58294;42.988;20.338;2023-07-09T13:05:02;1024.70;972.80
70593;DHT22;58294;42.988;20.338;2023-07-09T13:07:39;1024.70;819.20
70593;DHT22;58294;42.988;20.338;2023-07-09T13:10:21;1024.60;819.20
70593;DHT22;58294;42.988;20.338;2023-07-09T13:12:51;1024.70;819.20
70593;DHT22;58294;42.988;20.338;2023-07-09T13:15:42;1049.60;870.40
70593;DHT22;58294;42.988;20.338;2023-07-09T13:18:13;1024.70;844.80
70593;DHT22;58294;42.988;20.338;2023-07-09T13:20:42;1049.90;819.20
70593;DHT22;58294;42.988;20.338;2023-07-09T13:23:17;1049.90;870.40
70593;DHT22;58294;42.988;20.338;2023-07-09T13:25:44;1049.90;870.40
70593;DHT22;58294;42.988;20.338;2023-07-09T13:28:23;1049.80;819.20
70593;DHT22;58294;42.988;20.338;2023-07-09T13:35:46;973.30;921.60
70593;DHT22;58294;42.988;20.338;2023-07-09T13:48:12;870.70;972.80
70593;DHT22;58294;42.988;20.338;2023-07-09T13:50:38;845.40;947.20
70593;DHT22;58294;42.988;20.338;2023-07-09T13:55:35;819.40;1049.60
70593;DHT22;58294;42.988;20.338;2023-07-09T14:00:27;794.10;1075.20
70593;DHT22;58294;42.988;20.338;2023-07-09T14:02:53;793.90;1024.00
70593;DHT22;58294;42.988;20.338;2023-07-09T14:05:19;768.90;1075.20
70593;DHT22;58294;42.988;20.338;2023-07-09T14:07:45;768.50;1126.40
70593;DHT22;58294;42.988;20.338;2023-07-09T14:10:13;768.20;1100.80
70593;DHT22;58294;42.988;20.338;2023-07-09T14:12:45;743.30;1075.20
70593;DHT22;58294;42.988;20.338;2023-07-09T14:15:18;743.20;1177.60
70593;DHT22;58294;42.988;20.338;2023-07-09T14:17:44;743.00;1177.60
70593;DHT22;58294;42.988;20.338;2023-07-09T14:20:14;742.70;1152.00
70593;DHT22;58294;42.988;20.338;2023-07-09T14:22:41;742.50;1126.40
70593;DHT22;58294;42.988;20.338;2023-07-09T14:27:37;717.70;1177.60
70593;DHT22;58294;42.988;20.338;2023-07-09T14:30:03;717.50;1126.40
70593;DHT22;58294;42.988;20.338;2023-07-09T14:34:59;717.30;1203.20
70593;DHT22;58294;42.988;20.338;2023-07-09T14:37:25;717.00;1126.40
70593;DHT22;58294;42.988;20.338;2023-07-09T14:39:52;717.20;1126.40
70593;DHT22;58294;42.988;20.338;2023-07-09T14:42:18;717.10;1126.40
70593;DHT22;58294;42.988;20.338;2023-07-09T14:44:44;717.00;1203.20
70593;DHT22;58294;42.988;20.338;2023-07-09T14:47:15;716.90;1228.80
70593;DHT22;58294;42.988;20.338;2023-07-09T14:49:42;716.80;1254.40
70593;DHT22;58294;42.988;20.338;2023-07-09T14:52:12;692.00;1203.20
70593;DHT22;58294;42.988;20.338;2023-07-09T15:04:30;692.00;1254.40
70593;DHT22;58294;42.988;20.338;2023-07-09T15:06:57;691.90;1228.80
70593;DHT22;58294;42.988;20.338;2023-07-09T15:09:26;691.70;1228.80
70593;DHT22;58294;42.988;20.338;2023-07-09T15:11:57;691.60;1280.00
70593;DHT22;58294;42.988;20.338;2023-07-09T15:14:25;691.60;1228.80
70593;DHT22;58294;42.988;20.338;2023-07-09T15:16:51;691.60;1203.20
70593;DHT22;58294;42.988;20.338;2023-07-09T15:19:18;691.50;1203.20
70593;DHT22;58294;42.988;20.338;2023-07-09T15:21:45;691.50;1280.00
70593;DHT22;58294;42.988;20.338;2023-07-09T15:24:21;691.40;1203.20
70593;DHT22;58294;42.988;20.338;2023-07-09T15:26:52;691.30;1254.40
70593;DHT22;58294;42.988;20.338;2023-07-09T15:29:22;691.30;1254.40
70593;DHT22;58294;42.988;20.338;2023-07-09T15:31:48;691.30;1280.00
70593;DHT22;58294;42.988;20.338;2023-07-09T15:34:14;691.30;1203.20
70593;DHT22;58294;42.988;20.338;2023-07-09T15:36:48;691.20;1280.00
70593;DHT22;58294;42.988;20.338;2023-07-09T15:58:58;666.40;1305.60
70593;DHT22;58294;42.988;20.338;2023-07-09T16:01:25;666.20;1203.20
70593;DHT22;58294;42.988;20.338;2023-07-09T16:03:53;666.20;1280.00
70593;DHT22;58294;42.988;20.338;2023-07-09T16:06:20;666.00;1203.20
70593;DHT22;58294;42.988;20.338;2023-07-09T16:11:22;666.00;1305.60
70593;DHT22;58294;42.988;20.338;2023-07-09T16:13:49;665.80;1280.00
70593;DHT22;58294;42.988;20.338;2023-07-09T16:16:17;665.70;1280.00
70593;DHT22;58294;42.988;20.338;2023-07-09T16:18:43;665.60;1203.20
70593;DHT22;58294;42.988;20.338;2023-07-09T16:23:46;665.70;1331.20
70593;DHT22;58294;42.988;20.338;2023-07-09T16:26:12;665.70;1228.80
70593;DHT22;58294;42.988;20.338;2023-07-09T16:33:30;665.80;1254.40
70593;DHT22;58294;42.988;20.338;2023-07-09T16:35:56;665.70;1203.20
70593;DHT22;58294;42.988;20.338;2023-07-09T16:38:22;665.70;1177.60
70593;DHT22;58294;42.988;20.338;2023-07-09T17:00:48;640.80;1331.20
70593;DHT22;58294;42.988;20.338;2023-07-09T17:03:14;640.60;1280.00
70593;DHT22;58294;42.988;20.338;2023-07-09T17:05:40;640.60;1254.40
70593;DHT22;58294;42.988;20.338;2023-07-09T17:08:06;640.50;1177.60
70593;DHT22;58294;42.988;20.338;2023-07-09T17:10:32;640.60;1254.40
70593;DHT22;58294;42.988;20.338;2023-07-09T17:13:00;640.40;1177.60
70593;DHT22;58294;42.988;20.338;2023-07-09T17:15:28;640.30;1203.20
70593;DHT22;58294;42.988;20.338;2023-07-09T17:17:57;640.50;1228.80
70593;DHT22;58294;42.988;20.338;2023-07-09T17:20:29;640.30;1203.20
70593;DHT22;58294;42.988;20.338;2023-07-09T17:25:28;640.30;1228.80
70593;DHT22;58294;42.988;20.338;2023-07-09T17:27:56;640.10;1177.60
70593;DHT22;58294;42.988;20.338;2023-07-09T17:30:23;640.10;1203.20
70593;DHT22;58294;42.988;20.338;2023-07-09T17:32:49;640.00;1228.80
70593;DHT22;58294;42.988;20.338;2023-07-09T17:35:15;615.30;1228.80
70593;DHT22;58294;42.988;20.338;2023-07-09T17:37:49;615.20;1228.80
70593;DHT22;58294;42.988;20.338;2023-07-09T17:40:28;615.20;1254.40
70593;DHT22;58294;42.988;20.338;2023-07-09T17:42:55;615.10;1254.40
70593;DHT22;58294;42.988;20.338;2023-07-09T17:45:22;615.00;1228.80
70593;DHT22;58294;42.988;20.338;2023-07-09T17:47:48;615.00;1254.40
70593;DHT22;58294;42.988;20.338;2023-07-09T17:50:19;614.90;1280.00
70593;DHT22;58294;42.988;20.338;2023-07-09T17:52:46;614.90;1280.00
70593;DHT22;58294;42.988;20.338;2023-07-09T17:55:13;614.90;1305.60
70593;DHT22;58294;42.988;20.338;2023-07-09T17:57:48;614.80;1280.00
70593;DHT22;58294;42.988;20.338;2023-07-09T18:00:25;614.70;1254.40
70593;DHT22;58294;42.988;20.338;2023-07-09T18:02:58;614.60;1280.00
70593;DHT22;58294;42.988;20.338;2023-07-09T18:05:29;614.60;1331.20
70593;DHT22;58294;42.988;20.338;2023-07-09T18:07:55;614.40;1331.20
70593;DHT22;58294;42.988;20.338;2023-07-09T18:10:27;589.70;1305.60
70593;DHT22;58294;42.988;20.338;2023-07-09T18:12:57;589.60;1331.20
70593;DHT22;58294;42.988;20.338;2023-07-09T18:15:25;589.50;1331.20
70593;DHT22;58294;42.988;20.338;2023-07-09T18:17:52;589.40;1331.20
70593;DHT22;58294;42.988;20.338;2023-07-09T18:20:22;589.30;1356.80
70593;DHT22;58294;42.988;20.338;2023-07-09T18:22:48;589.20;1356.80
70593;DHT22;58294;42.988;20.338;2023-07-09T18:25:14;589.10;1382.40
70593;DHT22;58294;42.988;20.338;2023-07-09T18:27:46;588.90;1408.00
70593;DHT22;58294;42.988;20.338;2023-07-09T18:30:17;588.90;1408.00
70593;DHT22;58294;42.988;20.338;2023-07-09T18:32:44;588.80;1408.00
70593;DHT22;58294;42.988;20.338;2023-07-09T18:35:33;588.80;1408.00
70593;DHT22;58294;42.988;20.338;2023-07-09T18:38:05;564.10;1459.20
70593;DHT22;58294;42.988;20.338;2023-07-09T18:40:37;563.90;1433.60